Time;durP1;ratioP1;P1;durP2;ratioP2;P2;SDS_P1;SDS_P2;PMS_P1;PMS_P2;Temp;Humidity;BMP_temperature;BMP_pressure;BME280_temperature;BME280_humidity;BME280_pressure;Samples;Min_cycle;Max_cycle;Signal;HPM_P1;HPM_P2
2022/05/21 00:00:00;;;;;;;4.50;1.98;;;22.50;99.90;;;;;;1903647;75;21084;-81
2022/05/21 00:02:54;;;;;;;4.10;1.60;;;22.40;99.90;;;;;;1906962;75;21085;-81
2022/05/21 00:05:47;;;;;;;5.17;2.33;;;22.30;99.90;;;;;;1910685;75;21059;-81
2022/05/21 00:08:38;;;;;;;7.00;2.10;;;22.30;99.90;;;;;;1910483;75;21118;-81
2022/05/21 00:11:30;;;;;;;6.83;2.02;;;22.30;99.90;;;;;;1926830;74;21051;-81
2022/05/21 00:14:23;;;;;;;3.42;1.77;;;22.30;99.90;;;;;;1916484;73;21135;-81
2022/05/21 00:17:14;;;;;;;4.53;1.90;;;22.20;99.90;;;;;;1907544;75;21099;-81
2022/05/21 00:20:47;;;;;;;5.00;1.80;;;22.20;99.90;;;;;;1908842;74;21052;-81
2022/05/21 00:23:02;;;;;;;4.62;1.52;;;22.30;99.90;;;;;;1904888;75;21484;-81
2022/05/21 00:28:39;;;;;;;5.35;1.67;;;22.20;99.90;;;;;;1950698;72;22115;-80
2022/05/21 00:31:49;;;;;;;6.35;1.75;;;22.20;99.90;;;;;;1886944;75;21110;-80
2022/05/21 00:34:59;;;;;;;4.67;2.08;;;22.10;99.90;;;;;;1894401;75;21087;-80
2022/05/21 00:37:50;;;;;;;3.55;1.75;;;22.10;99.90;;;;;;1903088;75;21126;-80
2022/05/21 00:41:00;;;;;;;4.80;1.55;;;22.10;99.90;;;;;;1902064;75;21109;-80
2022/05/21 00:43:53;;;;;;;5.80;1.85;;;22.00;99.90;;;;;;1896891;75;21059;-80
2022/05/21 00:46:47;;;;;;;8.83;2.22;;;21.90;99.90;;;;;;1895713;75;21146;-81
2022/05/21 00:49:39;;;;;;;3.25;1.80;;;21.90;99.90;;;;;;1895972;75;21161;-81
2022/05/21 00:52:31;;;;;;;5.03;1.82;;;21.80;99.90;;;;;;1917187;75;21653;-81
2022/05/21 00:55:26;;;;;;;3.98;1.80;;;21.80;99.90;;;;;;1902689;75;21083;-81
2022/05/21 01:04:13;;;;;;;5.28;1.85;;;21.70;99.90;;;;;;1950147;72;22523;-80
2022/05/21 01:07:23;;;;;;;5.53;1.98;;;21.60;99.90;;;;;;1917631;75;21126;-81
2022/05/21 01:13:19;;;;;;;6.03;1.62;;;21.60;99.90;;;;;;1976355;72;22184;-81
2022/05/21 01:16:29;;;;;;;5.10;1.90;;;21.60;99.90;;;;;;1933257;73;21079;-80
2022/05/21 01:19:57;;;;;;;4.53;1.90;;;21.60;99.90;;;;;;1931942;73;21169;-80
2022/05/21 01:22:50;;;;;;;4.15;2.05;;;21.70;99.90;;;;;;1917808;75;21117;-80
2022/05/21 01:26:04;;;;;;;2.87;1.40;;;21.70;99.90;;;;;;1917888;75;21063;-80
2022/05/21 01:28:57;;;;;;;6.10;2.08;;;21.70;99.90;;;;;;1925243;73;21086;-81
2022/05/21 01:31:54;;;;;;;3.35;1.98;;;21.60;99.90;;;;;;1925818;73;21050;-80
2022/05/21 01:34:46;;;;;;;4.67;1.80;;;21.70;99.90;;;;;;1917844;75;21148;-80
2022/05/21 01:37:39;;;;;;;5.70;1.75;;;21.60;99.90;;;;;;1917839;75;21145;-81
2022/05/21 01:40:31;;;;;;;4.37;1.90;;;21.60;99.90;;;;;;1917777;75;21124;-81
2022/05/21 01:46:32;;;;;;;5.70;2.12;;;21.40;99.90;;;;;;1917648;75;21110;-81
2022/05/21 01:49:24;;;;;;;4.12;1.82;;;21.30;99.90;;;;;;1917739;75;21080;-81
2022/05/21 01:52:16;;;;;;;4.53;1.85;;;21.20;99.90;;;;;;1917779;75;21066;-81
2022/05/21 01:55:08;;;;;;;7.22;2.70;;;21.20;99.90;;;;;;1917669;75;21057;-81
2022/05/21 01:57:59;;;;;;;4.33;1.95;;;21.00;99.90;;;;;;1940341;73;21158;-81
2022/05/21 02:00:51;;;;;;;6.35;1.70;;;21.00;99.90;;;;;;1917695;75;21132;-81
2022/05/21 02:03:42;;;;;;;3.98;1.95;;;20.90;99.90;;;;;;1935052;73;21048;-80
2022/05/21 02:06:34;;;;;;;5.83;2.02;;;20.90;99.90;;;;;;1917678;75;21171;-80
2022/05/21 02:09:25;;;;;;;6.47;1.70;;;20.90;99.90;;;;;;1917670;75;21140;-80
2022/05/21 02:12:16;;;;;;;3.37;1.70;;;20.80;99.90;;;;;;1940128;73;21236;-80
2022/05/21 02:15:10;;;;;;;2.85;1.77;;;20.80;99.90;;;;;;1917831;75;21725;-80
2022/05/21 02:18:02;;;;;;;3.87;1.62;;;20.80;99.90;;;;;;1917711;75;21083;-80
2022/05/21 02:20:55;;;;;;;5.62;1.90;;;20.80;99.90;;;;;;1917728;75;21161;-80
2022/05/21 02:23:47;;;;;;;5.70;1.77;;;20.80;99.90;;;;;;1917242;75;21098;-80
2022/05/21 02:26:40;;;;;;;3.65;1.90;;;20.80;99.90;;;;;;1917081;75;21101;-80
2022/05/21 02:29:33;;;;;;;5.20;1.62;;;20.70;99.90;;;;;;1917141;75;21495;-80
2022/05/21 02:32:25;;;;;;;5.62;1.70;;;20.70;99.90;;;;;;1916744;75;21475;-80
2022/05/21 02:35:18;;;;;;;3.20;1.90;;;20.70;99.90;;;;;;1916913;75;21129;-80
2022/05/21 02:41:20;;;;;;;7.25;3.17;;;20.70;99.90;;;;;;1917081;75;21172;-80
2022/05/21 02:44:12;;;;;;;7.20;3.22;;;20.70;99.90;;;;;;1917257;75;21114;-80
2022/05/21 02:47:04;;;;;;;7.58;2.37;;;20.70;99.90;;;;;;1916769;73;21189;-80
2022/05/21 02:49:55;;;;;;;7.22;3.27;;;20.60;99.90;;;;;;1939496;73;21117;-80
2022/05/21 02:52:47;;;;;;;6.15;3.45;;;20.50;99.90;;;;;;1939537;73;21055;-80
2022/05/21 02:55:38;;;;;;;9.88;3.50;;;20.50;99.90;;;;;;1916952;75;21097;-80
2022/05/21 02:58:30;;;;;;;5.95;2.30;;;20.40;99.90;;;;;;1917119;75;21122;-80
2022/05/21 03:01:21;;;;;;;6.25;2.10;;;20.30;99.90;;;;;;1916794;75;21063;-80
2022/05/21 03:04:14;;;;;;;7.78;2.25;;;20.20;99.90;;;;;;1917232;75;21120;-80
2022/05/21 03:07:06;;;;;;;4.95;2.20;;;20.00;99.90;;;;;;1917110;75;21205;-80
2022/05/21 03:13:06;;;;;;;5.45;1.90;;;19.90;99.90;;;;;;1918901;74;21173;-80
2022/05/21 03:15:58;;;;;;;3.42;1.67;;;20.00;99.90;;;;;;1920985;74;21125;-80
2022/05/21 03:18:50;;;;;;;3.62;1.90;;;20.10;99.90;;;;;;1918542;74;21047;-80
2022/05/21 03:21:41;;;;;;;3.40;1.87;;;20.00;99.90;;;;;;1917152;74;21132;-80
2022/05/21 03:24:33;;;;;;;3.87;2.12;;;19.90;99.90;;;;;;1916967;74;21122;-80
2022/05/21 03:27:24;;;;;;;2.95;1.87;;;19.90;99.90;;;;;;1910927;74;21058;-80
2022/05/21 03:30:18;;;;;;;3.62;1.92;;;19.80;99.90;;;;;;1910095;74;21047;-81
2022/05/21 03:33:12;;;;;;;8.68;2.40;;;19.70;99.90;;;;;;1910473;74;21140;-80
2022/05/21 03:36:08;;;;;;;3.55;1.67;;;19.70;99.90;;;;;;1902378;74;21112;-80
2022/05/21 03:39:00;;;;;;;5.10;1.60;;;19.70;99.90;;;;;;1911795;74;21183;-81
2022/05/21 03:41:52;;;;;;;3.25;1.60;;;19.70;99.90;;;;;;1904798;74;21099;-80
2022/05/21 03:44:46;;;;;;;4.33;1.70;;;19.60;99.90;;;;;;1924613;74;21209;-81
2022/05/21 03:47:41;;;;;;;3.25;1.50;;;19.60;99.90;;;;;;1921655;74;21063;-81
2022/05/21 03:50:32;;;;;;;3.10;1.70;;;19.50;99.90;;;;;;1921468;74;21563;-81
2022/05/21 03:53:23;;;;;;;4.50;2.08;;;19.50;99.90;;;;;;1902616;75;21172;-81
2022/05/21 03:56:15;;;;;;;5.30;2.00;;;19.50;99.90;;;;;;1918578;74;21047;-81
2022/05/21 03:59:06;;;;;;;2.62;1.60;;;19.40;99.90;;;;;;1918028;74;21039;-81
2022/05/21 04:01:59;;;;;;;3.62;2.10;;;19.50;99.90;;;;;;1918935;74;21063;-81
2022/05/21 04:04:52;;;;;;;4.78;1.70;;;19.50;99.90;;;;;;1902527;74;21126;-81
2022/05/21 04:07:45;;;;;;;7.58;2.12;;;19.50;99.90;;;;;;1906901;74;21113;-81
2022/05/21 04:10:37;;;;;;;4.25;2.10;;;19.50;99.90;;;;;;1910619;74;21110;-81
2022/05/21 04:13:28;;;;;;;3.00;2.00;;;19.50;99.90;;;;;;1913457;74;21144;-81
2022/05/21 04:16:20;;;;;;;5.50;2.02;;;19.50;99.90;;;;;;1911667;74;21067;-80
2022/05/21 04:19:11;;;;;;;5.25;2.20;;;19.60;99.90;;;;;;1920729;74;21102;-81
2022/05/21 04:22:04;;;;;;;5.53;2.20;;;19.60;99.90;;;;;;1924518;74;21055;-81
2022/05/21 04:24:55;;;;;;;5.78;2.30;;;19.60;99.90;;;;;;1921854;74;21158;-81
2022/05/21 04:27:47;;;;;;;6.10;1.72;;;19.60;99.90;;;;;;1902258;74;21052;-81
2022/05/21 04:30:39;;;;;;;4.45;2.45;;;19.60;99.90;;;;;;1902374;75;21063;-81
2022/05/21 04:33:31;;;;;;;4.08;2.00;;;19.60;99.90;;;;;;1918485;74;21078;-81
2022/05/21 04:36:22;;;;;;;3.33;2.00;;;19.50;99.90;;;;;;1922745;74;21059;-81
2022/05/21 04:39:14;;;;;;;5.30;2.10;;;19.40;99.90;;;;;;1913155;74;21050;-81
2022/05/21 04:42:08;;;;;;;5.33;2.35;;;19.40;99.90;;;;;;1910429;74;21055;-81
2022/05/21 04:44:59;;;;;;;3.35;2.00;;;19.50;99.90;;;;;;1907002;74;21184;-81
2022/05/21 04:47:52;;;;;;;3.83;2.05;;;19.50;99.90;;;;;;1918765;74;21054;-81
2022/05/21 04:50:43;;;;;;;5.45;2.17;;;19.50;99.90;;;;;;1914862;74;21106;-81
2022/05/21 04:53:35;;;;;;;4.95;2.40;;;19.50;99.90;;;;;;1914285;74;21095;-81
2022/05/21 04:56:27;;;;;;;3.25;2.08;;;19.50;99.90;;;;;;1911262;74;21102;-82
2022/05/21 04:59:22;;;;;;;6.35;2.12;;;19.60;99.90;;;;;;1911056;74;21192;-82
2022/05/21 05:02:13;;;;;;;2.92;2.02;;;19.60;99.90;;;;;;1916836;74;21519;-81
2022/05/21 05:05:06;;;;;;;4.50;1.92;;;19.70;99.90;;;;;;1916134;74;21085;-81
2022/05/21 05:07:58;;;;;;;4.28;2.10;;;19.80;99.90;;;;;;1910900;74;21157;-81
2022/05/21 05:10:50;;;;;;;2.22;1.82;;;19.90;99.90;;;;;;1910448;74;21059;-81
2022/05/21 05:13:42;;;;;;;3.83;1.85;;;19.90;99.90;;;;;;1912017;74;21118;-81
2022/05/21 05:16:33;;;;;;;4.15;1.77;;;19.90;99.90;;;;;;1913338;74;21126;-81
2022/05/21 05:19:25;;;;;;;2.62;1.77;;;19.90;99.90;;;;;;1910492;74;21066;-80
2022/05/21 05:22:16;;;;;;;2.33;2.08;;;19.80;99.90;;;;;;1910328;74;21165;-80
2022/05/21 05:25:09;;;;;;;4.12;1.80;;;19.80;99.90;;;;;;1910419;74;21106;-80
2022/05/21 05:28:02;;;;;;;4.80;2.05;;;19.70;99.90;;;;;;1917994;74;21079;-80
2022/05/21 05:30:54;;;;;;;4.00;2.02;;;19.60;99.90;;;;;;1911465;74;21176;-80
2022/05/21 05:33:45;;;;;;;5.30;2.25;;;19.70;99.90;;;;;;1912414;74;21052;-80
2022/05/21 05:36:37;;;;;;;3.37;2.12;;;19.60;99.90;;;;;;1913114;74;21106;-80
2022/05/21 05:39:29;;;;;;;6.00;2.15;;;19.60;99.90;;;;;;1916774;74;21047;-80
2022/05/21 05:42:20;;;;;;;4.70;2.12;;;19.60;99.90;;;;;;1912240;74;21047;-80
2022/05/21 05:45:14;;;;;;;3.80;2.35;;;19.70;99.90;;;;;;1904114;74;21200;-80
2022/05/21 05:48:06;;;;;;;5.75;2.00;;;19.80;99.90;;;;;;1924747;74;21047;-79
2022/05/21 05:51:02;;;;;;;3.35;2.10;;;19.70;99.90;;;;;;1902563;75;21192;-80
2022/05/21 05:53:54;;;;;;;2.55;2.05;;;19.90;99.90;;;;;;1914177;74;21175;-81
2022/05/21 05:56:46;;;;;;;5.65;2.33;;;19.90;99.90;;;;;;1918515;74;21099;-81
2022/05/21 05:59:56;;;;;;;5.20;2.50;;;20.00;99.90;;;;;;1918774;74;21121;-81
2022/05/21 06:03:01;;;;;;;4.28;2.22;;;20.10;99.90;;;;;;1922196;74;21189;-81
2022/05/21 06:05:55;;;;;;;6.97;3.80;;;20.10;99.90;;;;;;1910834;74;21200;-81
2022/05/21 06:08:47;;;;;;;4.55;2.20;;;20.10;99.90;;;;;;1916364;74;21184;-78
2022/05/21 06:11:38;;;;;;;4.97;2.42;;;20.30;99.90;;;;;;1912610;74;21046;-82
2022/05/21 06:14:30;;;;;;;3.22;1.90;;;20.40;99.90;;;;;;1912683;74;21092;-79
2022/05/21 06:17:21;;;;;;;4.85;2.70;;;20.50;99.90;;;;;;1911949;74;21116;-81
2022/05/21 06:20:16;;;;;;;4.92;2.45;;;20.60;99.90;;;;;;1904605;75;21166;-81
2022/05/21 06:23:12;;;;;;;4.53;2.25;;;20.60;99.90;;;;;;1904849;75;21055;-80
2022/05/21 06:26:04;;;;;;;3.92;1.90;;;20.70;99.90;;;;;;1916853;75;21051;-80
2022/05/21 06:28:56;;;;;;;5.12;2.25;;;20.70;99.90;;;;;;1916735;75;21063;-80
2022/05/21 06:31:47;;;;;;;3.20;2.15;;;20.80;99.90;;;;;;1917289;73;21131;-76
2022/05/21 06:34:39;;;;;;;2.77;1.95;;;20.90;99.90;;;;;;1932666;73;21137;-76
2022/05/21 06:37:31;;;;;;;6.03;2.30;;;20.90;99.90;;;;;;1917021;75;21047;-76
2022/05/21 06:40:22;;;;;;;5.40;2.20;;;20.90;99.90;;;;;;1932313;73;21110;-76
2022/05/21 06:43:14;;;;;;;2.95;2.10;;;21.10;99.90;;;;;;1904494;75;21043;-76
2022/05/21 06:46:06;;;;;;;3.42;2.25;;;21.20;99.90;;;;;;1904523;75;21091;-77
2022/05/21 06:48:57;;;;;;;4.00;2.10;;;21.30;99.90;;;;;;1923329;73;21069;-76
2022/05/21 06:51:49;;;;;;;4.20;1.90;;;21.30;99.90;;;;;;1904568;75;21508;-76
2022/05/21 06:54:40;;;;;;;3.83;2.02;;;21.40;99.90;;;;;;1921777;73;21050;-76
2022/05/21 06:57:33;;;;;;;4.58;2.00;;;21.50;99.90;;;;;;1937972;74;21121;-76
2022/05/21 07:00:25;;;;;;;5.80;1.87;;;21.50;99.90;;;;;;1921511;74;21094;-75
2022/05/21 07:03:17;;;;;;;3.20;2.00;;;21.50;99.90;;;;;;1928636;74;21032;-76
2022/05/21 07:09:19;;;;;;;2.60;2.10;;;21.70;99.90;;;;;;1937534;73;21185;-75
2022/05/21 07:12:11;;;;;;;5.25;2.08;;;21.70;99.90;;;;;;1904781;75;21110;-76
2022/05/21 07:15:05;;;;;;;5.55;2.27;;;21.80;99.90;;;;;;1921578;73;21050;-76
2022/05/21 07:18:01;;;;;;;6.87;1.90;;;21.90;99.90;;;;;;1904506;75;21142;-75
2022/05/21 07:20:52;;;;;;;2.95;2.00;;;22.00;99.90;;;;;;1916969;75;21116;-75
2022/05/21 07:26:30;;;;;;;4.10;2.35;;;22.20;99.90;;;;;;1958197;72;22200;-75
2022/05/21 07:29:40;;;;;;;3.45;2.02;;;22.20;99.90;;;;;;1902894;75;21046;-75
2022/05/21 07:32:50;;;;;;;5.67;2.25;;;22.20;99.90;;;;;;1893603;73;21157;-75
2022/05/21 07:38:20;;;;;;;4.22;2.47;;;22.40;99.90;;;;;;1948690;72;22309;-75
2022/05/21 07:41:30;;;;;;;6.35;2.12;;;22.40;99.90;;;;;;1939571;73;21222;-76
2022/05/21 07:44:41;;;;;;;4.47;2.08;;;22.50;99.90;;;;;;1917604;75;21063;-77
2022/05/21 07:47:32;;;;;;;4.80;2.17;;;22.60;99.90;;;;;;1917324;75;21067;-76
2022/05/21 07:50:45;;;;;;;4.08;2.22;;;22.80;99.90;;;;;;1924485;73;21055;-76
2022/05/21 07:53:40;;;;;;;4.33;2.60;;;22.90;99.90;;;;;;1917553;75;21138;-76
2022/05/21 07:56:33;;;;;;;3.75;2.15;;;22.90;99.90;;;;;;1920669;73;21578;-76
2022/05/21 07:59:24;;;;;;;7.22;2.62;;;22.90;99.90;;;;;;1933147;73;21582;-76
2022/05/21 08:02:18;;;;;;;4.60;2.25;;;22.90;99.90;;;;;;1934033;73;21106;-76
2022/05/21 08:05:11;;;;;;;5.00;2.50;;;22.90;99.90;;;;;;1932647;73;21093;-76
2022/05/21 08:08:03;;;;;;;6.08;2.05;;;23.00;99.90;;;;;;1918709;73;21250;-76
2022/05/21 08:10:54;;;;;;;4.50;2.70;;;23.10;99.90;;;;;;1917424;75;21059;-76
2022/05/21 08:13:45;;;;;;;5.12;2.42;;;23.10;99.90;;;;;;1917608;75;21095;-75
2022/05/21 08:19:18;;;;;;;5.22;2.47;;;23.30;99.90;;;;;;1967103;72;22090;-76
2022/05/21 08:29:05;;;;;;;3.55;2.33;;;23.50;99.90;;;;;;1918897;73;21129;-76
2022/05/21 08:32:17;;;;;;;3.60;2.62;;;23.60;99.90;;;;;;1940404;73;21087;-76
2022/05/21 08:35:10;;;;;;;4.75;2.30;;;23.70;99.90;;;;;;1921301;73;21495;-76
2022/05/21 08:38:01;;;;;;;3.55;2.33;;;23.80;99.90;;;;;;1930082;73;21175;-76
2022/05/21 08:40:56;;;;;;;6.37;2.60;;;23.90;99.90;;;;;;1917859;75;21047;-76
2022/05/21 08:43:55;;;;;;;5.70;2.60;;;23.90;99.90;;;;;;1917503;75;21076;-76
2022/05/21 08:47:01;;;;;;;5.80;2.55;;;24.00;99.90;;;;;;1917430;75;21055;-76
2022/05/21 08:49:58;;;;;;;5.22;2.33;;;24.00;99.90;;;;;;1917372;75;21109;-76
2022/05/21 08:52:54;;;;;;;4.92;2.83;;;24.10;99.90;;;;;;1940050;73;21090;-77
2022/05/21 08:55:47;;;;;;;4.35;2.27;;;24.30;99.90;;;;;;1937704;73;21047;-76
2022/05/21 08:58:43;;;;;;;6.35;2.70;;;24.50;99.90;;;;;;1935471;73;21061;-76
2022/05/21 09:01:37;;;;;;;4.17;2.58;;;24.70;99.90;;;;;;1917368;75;21169;-76
2022/05/21 09:04:31;;;;;;;8.38;3.08;;;24.80;99.90;;;;;;1917211;73;21106;-76
2022/05/21 09:07:25;;;;;;;5.62;2.87;;;24.80;99.90;;;;;;1917164;75;21121;-80
2022/05/21 09:13:35;;;;;;;6.75;3.10;;;24.70;99.90;;;;;;1951784;72;22186;-80
2022/05/21 09:16:55;;;;;;;5.08;2.75;;;24.80;99.90;;;;;;1932655;73;21187;-80
2022/05/21 09:20:09;;;;;;;6.20;2.70;;;25.00;99.90;;;;;;1919053;73;21171;-80
2022/05/21 09:23:02;;;;;;;6.37;2.60;;;25.00;99.90;;;;;;1917454;75;21092;-80
2022/05/21 09:26:13;;;;;;;5.08;2.40;;;25.00;99.90;;;;;;1917081;75;21117;-79
2022/05/21 09:29:18;;;;;;;3.70;2.70;;;25.10;99.90;;;;;;1928013;73;21122;-80
2022/05/21 09:32:21;;;;;;;4.60;2.20;;;25.20;99.90;;;;;;1917302;75;21183;-80
2022/05/21 09:35:16;;;;;;;9.30;2.50;;;25.30;99.90;;;;;;1917356;75;21083;-80
2022/05/21 09:38:16;;;;;;;5.30;2.75;;;25.30;99.90;;;;;;1917469;75;21086;-80
2022/05/21 09:41:13;;;;;;;3.83;2.65;;;25.50;99.90;;;;;;1936465;73;21143;-80
2022/05/21 09:47:27;;;;;;;4.22;2.40;;;25.60;99.90;;;;;;1926878;73;21568;-80
2022/05/21 09:50:24;;;;;;;7.15;2.72;;;25.60;99.90;;;;;;1928272;73;21048;-80
2022/05/21 09:53:31;;;;;;;6.67;2.83;;;25.60;99.90;;;;;;1940113;73;21566;-81
2022/05/21 09:56:27;;;;;;;3.08;2.15;;;25.50;99.90;;;;;;1916858;73;21154;-80
2022/05/21 09:59:21;;;;;;;6.25;2.40;;;25.60;99.90;;;;;;1918970;73;21533;-80
2022/05/21 10:02:19;;;;;;;4.37;2.40;;;25.60;99.90;;;;;;1917186;75;21094;-81
2022/05/21 10:05:14;;;;;;;3.95;2.40;;;25.60;99.90;;;;;;1917307;75;21140;-81
2022/05/21 10:11:25;;;;;;;4.28;2.77;;;25.70;99.90;;;;;;1917259;75;21059;-81
2022/05/21 10:14:21;;;;;;;4.22;2.45;;;25.80;99.90;;;;;;1927426;73;21070;-80
2022/05/21 10:17:16;;;;;;;5.53;2.15;;;25.90;99.90;;;;;;1926812;74;21183;-80
2022/05/21 10:20:14;;;;;;;4.92;2.60;;;25.90;99.90;;;;;;1926747;74;21560;-80
2022/05/21 10:23:10;;;;;;;6.58;2.27;;;25.90;99.90;;;;;;1926745;74;21051;-80
2022/05/21 10:26:07;;;;;;;4.05;2.50;;;26.00;99.90;;;;;;1926095;74;21199;-81
2022/05/21 10:29:06;;;;;;;6.03;2.65;;;26.20;99.90;;;;;;1926375;74;21409;-81
2022/05/21 10:32:05;;;;;;;4.55;2.37;;;26.20;99.90;;;;;;1932492;73;21079;-82
2022/05/21 10:35:01;;;;;;;5.05;3.05;;;26.30;99.90;;;;;;1926216;74;21124;-82
2022/05/21 10:37:58;;;;;;;4.40;2.52;;;26.30;99.90;;;;;;1944331;73;21197;-82
2022/05/21 10:40:53;;;;;;;7.05;3.45;;;26.40;99.90;;;;;;1926450;74;21054;-82
2022/05/21 10:44:05;;;;;;;3.75;2.35;;;26.40;99.90;;;;;;1869876;76;21577;-81
2022/05/21 10:46:59;;;;;;;4.03;2.47;;;26.40;99.90;;;;;;1916338;73;21144;-80
2022/05/21 10:53:39;;;;;;;5.95;2.77;;;26.60;99.90;;;;;;1922665;72;22204;-80
2022/05/21 10:56:56;;;;;;;4.12;2.20;;;26.70;99.90;;;;;;1897175;75;21183;-80
2022/05/21 11:00:07;;;;;;;;;;;26.90;99.90;;;;;;1895414;75;21153;-81
2022/05/21 11:03:19;;;;;;;5.75;2.30;;;27.20;99.90;;;;;;1906586;75;20238;-81
2022/05/21 11:06:27;;;;;;;4.03;1.82;;;27.20;99.90;;;;;;1901491;75;21565;-82
2022/05/21 11:09:23;;;;;;;3.00;2.05;;;27.20;99.90;;;;;;1906348;75;21043;-81
2022/05/21 11:12:18;;;;;;;4.97;2.05;;;27.20;99.90;;;;;;1900574;75;21072;-81
2022/05/21 11:15:13;;;;;;;3.65;2.52;;;27.20;99.90;;;;;;1893830;75;21106;-81
2022/05/21 11:18:09;;;;;;;4.62;3.10;;;27.30;99.90;;;;;;1909581;73;21124;-80
2022/05/21 11:21:04;;;;;;;4.75;1.98;;;27.40;99.90;;;;;;1912407;75;21111;-81
2022/05/21 11:26:42;;;;;;;5.45;2.20;;;27.40;99.90;;;;;;1952195;72;22322;-80
2022/05/21 11:29:56;;;;;;;3.37;2.30;;;27.70;99.90;;;;;;1967535;72;21156;-80
2022/05/21 11:39:50;;;;;;;5.42;2.60;;;28.10;99.90;;;;;;1933344;72;21094;-81
2022/05/21 11:45:26;;;;;;;4.35;2.02;;;28.20;99.90;;;;;;1957749;72;22185;-83
2022/05/21 11:48:36;;;;;;;3.67;2.37;;;28.30;99.90;;;;;;1894734;75;21593;-81
2022/05/21 11:51:46;;;;;;;4.72;2.70;;;28.30;99.90;;;;;;1895262;75;21604;-80
2022/05/21 11:55:02;;;;;;;4.72;2.10;;;28.20;99.90;;;;;;1894789;75;21059;-81
2022/05/21 11:58:14;;;;;;;3.77;2.40;;;28.40;99.90;;;;;;1917187;75;21155;-81
2022/05/21 12:01:06;;;;;;;4.00;2.25;;;28.50;99.90;;;;;;1915564;75;21122;-80
2022/05/21 12:04:00;;;;;;;3.55;2.30;;;28.60;99.90;;;;;;1896297;75;21070;-80
2022/05/21 12:06:53;;;;;;;5.12;2.77;;;28.70;99.90;;;;;;1900705;75;21051;-81
2022/05/21 12:10:02;;;;;;;4.20;2.10;;;28.70;99.90;;;;;;1884269;76;21118;-81
2022/05/21 12:16:00;;;;;;;4.42;2.50;;;28.80;99.90;;;;;;1950362;72;28683;-80
2022/05/21 12:19:12;;;;;;;5.40;2.00;;;29.10;99.90;;;;;;1917155;75;21054;-80
2022/05/21 12:22:39;;;;;;;7.50;2.45;;;29.10;99.90;;;;;;1916789;75;21080;-80
2022/05/21 12:26:05;;;;;;;5.67;2.27;;;29.20;99.90;;;;;;1938877;73;21150;-80
2022/05/21 12:29:21;;;;;;;5.08;2.30;;;29.30;99.90;;;;;;1917281;75;21098;-80
2022/05/21 12:32:17;;;;;;;5.28;2.62;;;29.30;99.90;;;;;;1917147;75;21563;-81
2022/05/21 12:35:54;;;;;;;6.92;2.25;;;29.40;99.90;;;;;;1921902;73;21098;-81
2022/05/21 12:38:46;;;;;;;;;;;29.40;99.90;;;;;;1893618;73;21155;-80
2022/05/21 12:41:42;;;;;;;6.90;2.75;;;29.50;99.90;;;;;;1923785;73;20159;-81
2022/05/21 12:44:40;;;;;;;6.65;2.92;;;29.50;99.90;;;;;;1917166;75;21599;-80
2022/05/21 12:47:34;;;;;;;4.62;2.52;;;29.60;99.90;;;;;;1917243;75;21113;-80
2022/05/21 12:50:27;;;;;;;6.72;2.77;;;29.60;99.90;;;;;;1917176;73;21068;-80
2022/05/21 12:53:25;;;;;;;5.37;2.20;;;29.70;99.90;;;;;;1922923;73;21110;-80
2022/05/21 12:56:21;;;;;;;5.92;2.20;;;29.60;99.70;;;;;;1924132;73;21110;-80
2022/05/21 12:59:18;;;;;;;4.72;2.40;;;29.60;99.90;;;;;;1874026;76;21110;-80
2022/05/21 13:02:15;;;;;;;4.97;2.58;;;29.70;99.90;;;;;;1934178;73;21090;-80
2022/05/21 13:05:08;;;;;;;4.97;2.00;;;29.90;99.40;;;;;;1917568;75;21099;-79
2022/05/21 13:08:03;;;;;;;4.28;2.27;;;29.90;98.90;;;;;;1917108;75;21172;-79
2022/05/21 13:11:01;;;;;;;7.25;2.60;;;30.00;99.00;;;;;;1917403;75;21186;-79
2022/05/21 13:16:36;;;;;;;7.17;2.83;;;30.10;97.80;;;;;;1933316;72;22189;-79
2022/05/21 13:20:00;;;;;;;3.92;2.22;;;30.20;97.40;;;;;;1897643;75;21055;-79
2022/05/21 13:23:17;;;;;;;4.20;2.15;;;30.20;96.20;;;;;;1899203;75;21094;-79
2022/05/21 13:26:11;;;;;;;5.67;2.60;;;30.40;96.70;;;;;;1896283;75;21091;-80
2022/05/21 13:29:25;;;;;;;8.65;2.55;;;30.50;95.10;;;;;;1896478;75;21149;-79
2022/05/21 13:32:23;;;;;;;6.83;2.50;;;30.50;94.70;;;;;;1895309;75;21102;-79
2022/05/21 13:35:29;;;;;;;6.75;2.47;;;30.60;95.10;;;;;;1895525;75;21064;-79
2022/05/21 13:38:23;;;;;;;7.75;3.00;;;30.60;94.40;;;;;;1895073;75;21133;-79
2022/05/21 13:41:18;;;;;;;5.25;2.40;;;30.70;94.80;;;;;;1917111;75;21082;-78
2022/05/21 13:44:14;;;;;;;5.75;2.50;;;30.80;94.20;;;;;;1916334;75;21155;-79
2022/05/21 13:47:10;;;;;;;5.28;2.45;;;31.00;94.50;;;;;;1884389;75;21167;-80
2022/05/21 13:50:02;;;;;;;4.72;2.12;;;31.20;92.40;;;;;;1914003;75;21209;-79
2022/05/21 13:52:53;;;;;;;8.68;2.33;;;31.40;93.20;;;;;;1895605;75;21539;-79
2022/05/21 13:55:57;;;;;;;4.85;2.30;;;31.60;92.70;;;;;;1897432;75;21067;-79
2022/05/21 13:59:04;;;;;;;;;;;31.90;92.40;;;;;;1905734;75;21125;-79
2022/05/21 14:01:58;;;;;;;3.15;2.10;;;32.10;91.40;;;;;;1901500;75;20169;-79
2022/05/21 14:04:49;;;;;;;7.90;2.58;;;32.10;90.80;;;;;;1895358;75;21136;-80
2022/05/21 14:07:47;;;;;;;5.20;2.33;;;32.30;91.20;;;;;;1894956;75;21632;-79
2022/05/21 14:10:42;;;;;;;2.80;1.90;;;32.60;90.80;;;;;;1895533;75;21128;-78
2022/05/21 14:16:31;;;;;;;6.08;2.30;;;33.00;86.90;;;;;;1955024;72;22294;-79
2022/05/21 14:19:42;;;;;;;6.08;2.22;;;32.90;86.30;;;;;;1899129;75;21541;-79
2022/05/21 14:22:54;;;;;;;4.97;2.95;;;33.10;86.30;;;;;;1897732;75;21541;-79
2022/05/21 14:25:47;;;;;;;8.28;2.40;;;33.40;86.10;;;;;;1886261;75;21118;-79
2022/05/21 14:28:57;;;;;;;7.55;2.25;;;33.40;84.50;;;;;;1906309;75;21094;-79
2022/05/21 14:31:51;;;;;;;4.60;2.72;;;33.70;83.00;;;;;;1887700;75;21188;-79
2022/05/21 14:34:42;;;;;;;5.80;2.30;;;33.80;81.30;;;;;;1896256;75;21126;-79
2022/05/21 14:37:34;;;;;;;4.58;2.42;;;33.90;81.00;;;;;;1900088;75;21055;-79
2022/05/21 14:40:27;;;;;;;6.90;2.77;;;34.10;80.30;;;;;;1906694;75;21137;-80
2022/05/21 14:43:28;;;;;;;7.40;2.45;;;34.20;80.00;;;;;;1905764;75;21061;-79
2022/05/21 14:49:29;;;;;;;6.35;2.42;;;34.70;78.10;;;;;;1902313;75;21595;-79
2022/05/21 14:55:30;;;;;;;11.05;3.12;;;35.30;75.80;;;;;;1900882;75;21179;-79
2022/05/21 14:58:25;;;;;;;5.92;2.95;;;35.30;73.50;;;;;;1884453;76;21216;-79
2022/05/21 15:01:17;;;;;;;4.75;2.60;;;35.30;72.80;;;;;;1906393;75;21059;-79
2022/05/21 15:04:09;;;;;;;5.33;2.37;;;35.70;71.80;;;;;;1906769;75;21124;-79
2022/05/21 15:07:01;;;;;;;6.35;2.70;;;35.60;70.80;;;;;;1903020;75;21054;-79
2022/05/21 15:09:57;;;;;;;7.37;2.37;;;35.60;70.50;;;;;;1899272;75;21180;-79
2022/05/21 15:12:49;;;;;;;8.50;2.20;;;35.90;69.30;;;;;;1895304;75;21390;-79
2022/05/21 15:15:41;;;;;;;5.00;2.50;;;35.90;67.30;;;;;;1898900;74;21118;-79
2022/05/21 15:21:20;;;;;;;5.12;2.40;;;36.00;66.60;;;;;;1955075;72;22300;-78
2022/05/21 15:24:30;;;;;;;6.45;2.10;;;36.60;65.80;;;;;;1906952;74;21124;-79
2022/05/21 15:27:42;;;;;;;4.30;2.10;;;36.80;64.40;;;;;;1897621;75;21096;-79
2022/05/21 15:30:34;;;;;;;4.35;2.12;;;36.70;63.50;;;;;;1892733;75;21107;-79
2022/05/21 15:33:45;;;;;;;6.67;2.20;;;36.90;62.70;;;;;;1911885;75;21062;-79
2022/05/21 15:36:37;;;;;;;5.78;2.10;;;37.10;61.90;;;;;;1912177;75;21179;-79
2022/05/21 15:39:29;;;;;;;7.70;2.02;;;37.20;61.00;;;;;;1898123;75;21213;-79
2022/05/21 15:42:23;;;;;;;4.40;1.92;;;37.10;60.30;;;;;;1898497;75;21105;-79
2022/05/21 15:45:15;;;;;;;5.55;2.60;;;37.40;60.30;;;;;;1893904;75;21051;-79
2022/05/21 15:48:08;;;;;;;6.72;2.30;;;37.60;59.10;;;;;;1913639;75;21573;-79
2022/05/21 15:50:59;;;;;;;6.03;2.15;;;37.20;59.10;;;;;;1898894;75;21180;-79
2022/05/21 15:53:51;;;;;;;6.15;2.45;;;37.50;59.30;;;;;;1912094;75;21147;-79
2022/05/21 15:56:43;;;;;;;7.30;2.05;;;38.10;59.00;;;;;;1906587;75;21662;-80
2022/05/21 15:59:35;;;;;;;4.25;2.05;;;38.50;57.60;;;;;;1904956;75;21090;-80
2022/05/21 16:02:30;;;;;;;6.53;2.40;;;38.60;57.00;;;;;;1909077;75;21067;-79
2022/05/21 16:05:23;;;;;;;7.12;2.35;;;38.60;56.80;;;;;;1911849;75;21071;-79
2022/05/21 16:08:15;;;;;;;4.35;1.98;;;38.60;57.10;;;;;;1897340;75;21176;-80
2022/05/21 16:11:30;;;;;;;4.37;2.12;;;38.50;56.40;;;;;;1892768;75;21099;-79
2022/05/21 16:14:22;;;;;;;4.70;2.12;;;38.30;56.20;;;;;;1885376;75;21063;-79
2022/05/21 16:17:15;;;;;;;5.10;2.37;;;38.20;56.00;;;;;;1883163;75;21120;-79
2022/05/21 16:20:10;;;;;;;5.87;2.50;;;38.60;55.70;;;;;;1905059;74;21176;-79
2022/05/21 16:23:02;;;;;;;5.78;2.37;;;38.90;55.10;;;;;;1917327;75;21057;-79
2022/05/21 16:25:54;;;;;;;4.62;2.20;;;39.20;54.30;;;;;;1892079;75;21083;-79
2022/05/21 16:28:46;;;;;;;6.75;2.55;;;39.20;54.30;;;;;;1885429;75;21369;-79
2022/05/21 16:31:38;;;;;;;4.33;2.15;;;39.10;54.20;;;;;;1888045;75;21065;-79
2022/05/21 16:34:29;;;;;;;9.73;2.30;;;39.10;54.30;;;;;;1898988;75;21184;-79
2022/05/21 16:37:22;;;;;;;6.12;2.35;;;38.30;55.00;;;;;;1896174;75;21577;-79
2022/05/21 16:40:17;;;;;;;5.15;2.65;;;37.20;56.50;;;;;;1909321;75;21091;-79